Time;durP1;ratioP1;P1;durP2;ratioP2;P2;SDS_P1;SDS_P2;PMS_P1;PMS_P2;Temp;Humidity;BMP_temperature;BMP_pressure;BME280_temperature;BME280_humidity;BME280_pressure;Samples;Min_cycle;Max_cycle;Signal;HPM_P1;HPM_P2
2024/01/09 00:00:37;;;;;;;7.17;5.77;;;;;;;;;;4327737;32;315562;-79
2024/01/09 00:03:21;;;;;;;8.40;6.17;;;;;;;;;;4336516;32;315550;-79
2024/01/09 00:05:52;;;;;;;9.00;6.23;;;;;;;;;;4330649;32;414895;-79
2024/01/09 00:08:28;;;;;;;7.30;5.03;;;;;;;;;;4391003;32;322633;-79
2024/01/09 00:11:00;;;;;;;11.10;7.10;;;;;;;;;;4328952;32;315372;-79
2024/01/09 00:13:30;;;;;;;9.33;6.07;;;;;;;;;;4317950;32;315258;-80
2024/01/09 00:16:05;;;;;;;9.43;6.10;;;;;;;;;;4337874;32;314602;-79
2024/01/09 00:18:35;;;;;;;6.80;5.53;;;;;;;;;;4320268;32;315563;-80
2024/01/09 00:21:02;;;;;;;11.97;6.50;;;;;;;;;;4337150;32;315962;-80
2024/01/09 00:23:30;;;;;;;7.18;4.93;;;;;;;;;;4316185;32;316736;-79
2024/01/09 00:25:58;;;;;;;8.57;5.87;;;;;;;;;;4333535;32;316149;-81
2024/01/09 00:28:28;;;;;;;8.47;5.53;;;;;;;;;;4326549;32;314693;-81
2024/01/09 00:31:04;;;;;;;6.70;5.57;;;;;;;;;;4340556;32;315671;-80
2024/01/09 00:34:19;;;;;;;6.30;5.27;;;;;;;;;;4302296;32;315565;-79
2024/01/09 00:36:56;;;;;;;6.60;5.70;;;;;;;;;;4296161;32;415886;-80
2024/01/09 00:39:25;;;;;;;7.20;5.93;;;;;;;;;;4292048;32;315814;-80
2024/01/09 00:41:54;;;;;;;6.30;5.13;;;;;;;;;;4304030;32;314574;-79
2024/01/09 00:44:21;;;;;;;6.70;5.57;;;;;;;;;;4295812;32;315267;-79
2024/01/09 00:46:51;;;;;;;6.80;5.63;;;;;;;;;;4304703;32;315562;-80
2024/01/09 00:49:18;;;;;;;7.40;4.90;;;;;;;;;;4293072;32;315740;-82
2024/01/09 00:54:32;;;;;;;6.57;5.27;;;;;;;;;;4305116;32;314915;-79
2024/01/09 00:57:03;;;;;;;7.80;5.50;;;;;;;;;;4314865;32;314268;-81
2024/01/09 00:59:32;;;;;;;11.03;6.80;;;;;;;;;;4298543;32;314311;-79
2024/01/09 01:02:03;;;;;;;8.70;5.90;;;;;;;;;;4326725;32;317001;-81
2024/01/09 01:04:30;;;;;;;6.83;5.53;;;;;;;;;;4315834;32;315124;-79
2024/01/09 01:06:58;;;;;;;6.53;5.33;;;;;;;;;;4372075;32;314105;-80
2024/01/09 01:09:38;;;;;;;8.13;5.17;;;;;;;;;;4376448;32;315574;-80
2024/01/09 01:12:05;;;;;;;7.40;5.80;;;;;;;;;;4316662;32;315438;-80
2024/01/09 01:14:35;;;;;;;7.93;5.23;;;;;;;;;;4316184;32;315490;-80
2024/01/09 01:17:02;;;;;;;7.27;6.03;;;;;;;;;;4335352;32;314363;-80
2024/01/09 01:19:30;;;;;;;15.63;11.50;;;;;;;;;;4316194;32;315532;-80
2024/01/09 01:22:01;;;;;;;8.63;6.17;;;;;;;;;;4332879;32;317523;-80
2024/01/09 01:24:30;;;;;;;6.83;5.80;;;;;;;;;;4323208;32;315867;-80
2024/01/09 01:26:57;;;;;;;5.30;4.70;;;;;;;;;;4329207;32;315328;-82
2024/01/09 01:29:33;;;;;;;6.73;5.70;;;;;;;;;;4316583;32;315981;-80
2024/01/09 01:34:44;;;;;;;7.00;5.00;;;;;;;;;;4326451;32;387226;-81
2024/01/09 01:37:12;;;;;;;8.43;5.70;;;;;;;;;;4309990;32;315894;-79
2024/01/09 01:39:39;;;;;;;6.33;4.73;;;;;;;;;;4304495;32;315754;-81
2024/01/09 01:42:06;;;;;;;7.33;5.57;;;;;;;;;;4316421;32;315511;-81
2024/01/09 01:44:34;;;;;;;5.87;4.33;;;;;;;;;;4307080;32;341138;-81
2024/01/09 01:47:02;;;;;;;6.33;4.70;;;;;;;;;;4306540;33;315352;-80
2024/01/09 01:49:30;;;;;;;6.07;4.30;;;;;;;;;;4297131;32;316211;-81
2024/01/09 01:52:00;;;;;;;6.60;4.63;;;;;;;;;;4321790;33;316380;-81
2024/01/09 01:54:35;;;;;;;5.00;4.33;;;;;;;;;;4319814;33;316161;-81
2024/01/09 01:57:04;;;;;;;4.53;4.13;;;;;;;;;;4326498;33;315694;-80
2024/01/09 01:59:37;;;;;;;5.37;4.10;;;;;;;;;;4300751;32;316195;-80
2024/01/09 02:02:06;;;;;;;4.90;4.40;;;;;;;;;;4320150;32;316180;-81
2024/01/09 02:04:34;;;;;;;7.13;5.40;;;;;;;;;;4320099;32;416623;-80
2024/01/09 02:07:05;;;;;;;4.57;3.67;;;;;;;;;;4320015;32;316582;-81
2024/01/09 02:09:37;;;;;;;6.63;3.90;;;;;;;;;;4300443;32;316018;-79
2024/01/09 02:12:06;;;;;;;4.97;3.60;;;;;;;;;;4325322;32;316075;-79
2024/01/09 02:14:35;;;;;;;5.57;4.37;;;;;;;;;;4304044;32;415365;-81
2024/01/09 02:17:03;;;;;;;5.27;3.50;;;;;;;;;;4329167;32;315242;-80
2024/01/09 02:19:33;;;;;;;4.17;3.77;;;;;;;;;;4300583;32;316247;-80
2024/01/09 02:22:01;;;;;;;4.77;4.00;;;;;;;;;;4319819;32;315593;-80
2024/01/09 02:24:31;;;;;;;4.30;3.73;;;;;;;;;;4309922;33;315499;-79
2024/01/09 02:29:47;;;;;;;5.03;3.93;;;;;;;;;;4306083;32;316069;-80
2024/01/09 02:32:21;;;;;;;4.93;4.20;;;;;;;;;;4273727;32;343838;-80
2024/01/09 02:34:57;;;;;;;6.83;4.23;;;;;;;;;;4305046;32;315528;-79
2024/01/09 02:40:12;;;;;;;4.87;4.00;;;;;;;;;;4273746;32;313227;-79
2024/01/09 02:45:23;;;;;;;4.90;3.93;;;;;;;;;;4276865;32;388395;-80
2024/01/09 02:47:53;;;;;;;7.33;4.47;;;;;;;;;;4294494;32;316073;-80
2024/01/09 02:50:21;;;;;;;6.60;4.53;;;;;;;;;;4290966;32;315671;-80
2024/01/09 02:52:58;;;;;;;5.43;3.77;;;;;;;;;;4304445;33;315514;-81
2024/01/09 02:55:26;;;;;;;4.90;3.83;;;;;;;;;;4275090;32;414521;-79
2024/01/09 02:57:52;;;;;;;3.87;3.47;;;;;;;;;;4305008;32;322417;-79
2024/01/09 03:00:20;;;;;;;6.60;4.60;;;;;;;;;;4280375;32;315825;-80
2024/01/09 03:02:49;;;;;;;6.50;4.70;;;;;;;;;;4314248;32;315242;-80
2024/01/09 03:05:17;;;;;;;10.90;6.13;;;;;;;;;;4310022;32;315821;-79
2024/01/09 03:07:45;;;;;;;6.23;4.73;;;;;;;;;;4322070;32;316774;-80
2024/01/09 03:10:12;;;;;;;7.17;5.10;;;;;;;;;;4306004;32;316124;-81
2024/01/09 03:12:40;;;;;;;4.50;3.87;;;;;;;;;;4322007;32;315495;-80
2024/01/09 03:15:10;;;;;;;4.60;4.10;;;;;;;;;;4311197;32;315745;-80
2024/01/09 03:17:37;;;;;;;6.00;4.40;;;;;;;;;;4319760;32;315632;-80
2024/01/09 03:20:07;;;;;;;7.40;5.17;;;;;;;;;;4305082;32;343309;-80
2024/01/09 03:22:35;;;;;;;4.93;3.67;;;;;;;;;;4303997;32;315356;-80
2024/01/09 03:25:07;;;;;;;5.00;4.17;;;;;;;;;;4315580;32;314269;-80
2024/01/09 03:27:37;;;;;;;6.87;4.50;;;;;;;;;;4333197;32;313143;-79
2024/01/09 03:30:08;;;;;;;6.60;5.13;;;;;;;;;;4298038;32;313440;-80
2024/01/09 03:32:37;;;;;;;5.80;4.27;;;;;;;;;;4333132;32;351681;-81
2024/01/09 03:35:08;;;;;;;5.67;4.30;;;;;;;;;;4343401;32;315985;-80
2024/01/09 03:37:45;;;;;;;5.77;3.80;;;;;;;;;;4310612;32;314531;-80
2024/01/09 03:40:14;;;;;;;5.40;4.50;;;;;;;;;;4304946;32;315655;-80
2024/01/09 03:42:40;;;;;;;5.63;4.00;;;;;;;;;;4313134;32;315928;-80
2024/01/09 03:45:09;;;;;;;5.20;3.93;;;;;;;;;;4301193;32;316057;-80
2024/01/09 03:47:35;;;;;;;3.77;3.37;;;;;;;;;;4343918;32;314676;-80
2024/01/09 03:50:03;;;;;;;10.03;3.80;;;;;;;;;;4322230;32;314623;-79
2024/01/09 03:52:32;;;;;;;4.83;3.63;;;;;;;;;;4289721;32;317171;-80
2024/01/09 03:55:02;;;;;;;4.43;3.77;;;;;;;;;;4307776;32;315933;-79
2024/01/09 03:57:30;;;;;;;5.23;4.03;;;;;;;;;;4320441;32;314296;-81
2024/01/09 03:59:59;;;;;;;8.00;4.60;;;;;;;;;;4299962;32;315691;-79
2024/01/09 04:02:28;;;;;;;5.30;4.20;;;;;;;;;;4313057;32;315349;-80
2024/01/09 04:04:54;;;;;;;5.93;3.93;;;;;;;;;;4320091;32;316109;-80
2024/01/09 04:07:21;;;;;;;7.30;5.03;;;;;;;;;;4274240;32;415961;-80
2024/01/09 04:09:51;;;;;;;4.23;3.60;;;;;;;;;;4304676;33;316091;-80
2024/01/09 04:12:18;;;;;;;5.40;4.40;;;;;;;;;;4293634;32;316094;-80
2024/01/09 04:14:48;;;;;;;6.77;4.47;;;;;;;;;;4317379;32;316207;-80
2024/01/09 04:17:18;;;;;;;6.57;3.97;;;;;;;;;;4310776;33;316060;-80
2024/01/09 04:19:46;;;;;;;5.73;3.90;;;;;;;;;;4316514;33;316233;-80
2024/01/09 04:22:13;;;;;;;5.67;4.40;;;;;;;;;;4302145;32;316117;-80
2024/01/09 04:24:42;;;;;;;4.40;3.77;;;;;;;;;;4318328;33;316657;-80
2024/01/09 04:27:12;;;;;;;5.43;3.77;;;;;;;;;;4305495;32;316749;-81
2024/01/09 04:29:40;;;;;;;4.77;4.00;;;;;;;;;;4344066;32;316009;-80
2024/01/09 04:32:10;;;;;;;5.30;3.90;;;;;;;;;;4296540;32;315431;-80
2024/01/09 04:34:38;;;;;;;4.47;4.00;;;;;;;;;;4313144;32;316167;-81
2024/01/09 04:37:05;;;;;;;6.57;5.37;;;;;;;;;;4306085;32;315958;-80
2024/01/09 04:39:35;;;;;;;10.23;5.60;;;;;;;;;;4314481;32;315489;-80
2024/01/09 04:42:05;;;;;;;11.20;5.73;;;;;;;;;;4298706;32;316622;-80
2024/01/09 04:44:35;;;;;;;6.43;5.13;;;;;;;;;;4317594;32;317162;-80
2024/01/09 04:47:04;;;;;;;8.40;4.80;;;;;;;;;;4289529;32;319055;-80
2024/01/09 04:49:31;;;;;;;15.47;5.93;;;;;;;;;;4308527;32;315229;-81
2024/01/09 04:51:59;;;;;;;8.80;5.17;;;;;;;;;;4295489;32;316988;-79
2024/01/09 04:54:29;;;;;;;7.33;5.03;;;;;;;;;;4295521;32;316105;-80
2024/01/09 04:56:58;;;;;;;8.03;6.10;;;;;;;;;;4304248;32;315919;-79
2024/01/09 04:59:26;;;;;;;6.53;5.27;;;;;;;;;;4291320;32;416552;-79
2024/01/09 05:02:01;;;;;;;5.80;4.57;;;;;;;;;;4331137;32;315282;-80
2024/01/09 05:04:29;;;;;;;5.23;4.13;;;;;;;;;;4366778;32;415468;-79
2024/01/09 05:06:56;;;;;;;6.20;4.43;;;;;;;;;;4299448;32;317014;-80
2024/01/09 05:09:24;;;;;;;5.33;4.37;;;;;;;;;;4288734;32;315389;-81
2024/01/09 05:11:52;;;;;;;8.17;5.17;;;;;;;;;;4305706;32;316156;-80
2024/01/09 05:14:21;;;;;;;9.80;5.80;;;;;;;;;;4290681;32;316244;-79
2024/01/09 05:16:47;;;;;;;7.30;4.37;;;;;;;;;;4305804;32;315965;-81
2024/01/09 05:19:17;;;;;;;5.47;3.93;;;;;;;;;;4302178;32;316311;-81
2024/01/09 05:21:45;;;;;;;5.33;3.67;;;;;;;;;;4333784;32;344762;-80
2024/01/09 05:24:13;;;;;;;6.50;4.57;;;;;;;;;;4318299;32;315994;-81
2024/01/09 05:26:41;;;;;;;7.23;4.73;;;;;;;;;;4335642;32;346682;-81
2024/01/09 05:29:10;;;;;;;7.30;5.33;;;;;;;;;;4318903;32;316749;-80
2024/01/09 05:31:45;;;;;;;9.60;6.23;;;;;;;;;;4317596;32;355592;-80
2024/01/09 05:34:13;;;;;;;8.43;5.83;;;;;;;;;;4302350;32;316024;-81
2024/01/09 05:36:44;;;;;;;5.43;4.57;;;;;;;;;;4319404;32;316100;-80
2024/01/09 05:39:15;;;;;;;7.00;5.40;;;;;;;;;;4309476;32;316285;-81
2024/01/09 05:41:43;;;;;;;6.00;5.40;;;;;;;;;;4323906;32;315363;-80
2024/01/09 05:44:12;;;;;;;11.83;6.07;;;;;;;;;;4301900;32;315450;-80
2024/01/09 05:46:42;;;;;;;7.37;6.33;;;;;;;;;;4318414;32;356416;-79
2024/01/09 05:49:10;;;;;;;6.30;5.07;;;;;;;;;;4299404;32;349483;-81
2024/01/09 05:51:45;;;;;;;8.60;5.60;;;;;;;;;;4307213;32;337834;-80
2024/01/09 05:54:16;;;;;;;10.53;6.17;;;;;;;;;;4300978;32;316129;-80
2024/01/09 05:56:45;;;;;;;8.00;5.67;;;;;;;;;;4318857;32;316678;-81
2024/01/09 05:59:19;;;;;;;8.17;5.50;;;;;;;;;;4298937;32;315807;-80
2024/01/09 06:04:37;;;;;;;12.10;6.77;;;;;;;;;;4307593;32;388330;-81
2024/01/09 06:07:05;;;;;;;8.27;5.90;;;;;;;;;;4298950;32;351615;-82
2024/01/09 06:09:34;;;;;;;8.70;5.40;;;;;;;;;;4306012;32;316287;-81
2024/01/09 06:12:02;;;;;;;8.43;6.00;;;;;;;;;;4295729;32;316181;-80
2024/01/09 06:14:28;;;;;;;13.73;8.57;;;;;;;;;;4287187;32;316020;-80
2024/01/09 06:16:58;;;;;;;8.13;6.00;;;;;;;;;;4318319;32;317283;-80
2024/01/09 06:19:28;;;;;;;12.17;7.70;;;;;;;;;;4276658;32;415436;-80
2024/01/09 06:21:57;;;;;;;12.30;7.67;;;;;;;;;;4318897;33;315570;-79
2024/01/09 06:24:25;;;;;;;10.03;7.53;;;;;;;;;;4300156;32;417001;-79
2024/01/09 06:26:54;;;;;;;8.73;7.37;;;;;;;;;;4312679;32;317184;-79
2024/01/09 06:29:23;;;;;;;15.67;11.80;;;;;;;;;;4306355;32;415061;-79
2024/01/09 06:31:54;;;;;;;14.87;12.67;;;;;;;;;;4316434;32;316836;-79
2024/01/09 06:34:21;;;;;;;16.20;12.53;;;;;;;;;;4298706;32;417325;-79
2024/01/09 06:36:49;;;;;;;22.43;18.83;;;;;;;;;;4321227;32;317152;-79
2024/01/09 06:39:27;;;;;;;21.00;13.27;;;;;;;;;;4302176;33;317761;-78
2024/01/09 06:42:09;;;;;;;18.00;10.10;;;;;;;;;;4318307;32;316806;-80
2024/01/09 06:44:38;;;;;;;22.70;14.13;;;;;;;;;;4285409;32;417888;-80
2024/01/09 06:47:08;;;;;;;23.00;14.67;;;;;;;;;;4298765;32;317584;-81
2024/01/09 06:49:37;;;;;;;28.60;17.63;;;;;;;;;;4319192;32;317586;-79
2024/01/09 06:52:05;;;;;;;11.63;8.80;;;;;;;;;;4293165;32;318369;-79
2024/01/09 06:54:33;;;;;;;9.17;7.00;;;;;;;;;;4316207;32;315433;-79
2024/01/09 06:57:17;;;;;;;15.13;9.20;;;;;;;;;;4300487;32;314513;-79
2024/01/09 06:59:46;;;;;;;9.30;6.67;;;;;;;;;;4319735;32;315529;-79
2024/01/09 07:02:15;;;;;;;12.70;7.87;;;;;;;;;;4282662;32;314237;-79
2024/01/09 07:04:46;;;;;;;13.27;9.70;;;;;;;;;;4317987;32;316696;-80
2024/01/09 07:07:16;;;;;;;19.10;10.93;;;;;;;;;;4337106;32;316595;-79
2024/01/09 07:09:43;;;;;;;18.53;9.90;;;;;;;;;;4348029;32;316968;-81
2024/01/09 07:12:17;;;;;;;18.30;9.83;;;;;;;;;;4306446;32;321625;-81
2024/01/09 07:14:48;;;;;;;10.97;7.97;;;;;;;;;;4315209;32;316565;-81
2024/01/09 07:17:19;;;;;;;12.93;9.37;;;;;;;;;;4344462;32;316431;-83
2024/01/09 07:19:50;;;;;;;17.07;9.47;;;;;;;;;;4339377;32;315787;-80
2024/01/09 07:22:18;;;;;;;11.80;7.67;;;;;;;;;;4354165;32;316366;-82
2024/01/09 07:24:46;;;;;;;8.83;6.33;;;;;;;;;;4373172;32;316767;-79
2024/01/09 07:27:15;;;;;;;9.20;6.57;;;;;;;;;;4305671;32;316243;-78
2024/01/09 07:29:41;;;;;;;9.70;7.10;;;;;;;;;;4316405;32;315811;-79
2024/01/09 07:32:08;;;;;;;9.73;7.30;;;;;;;;;;4305872;32;315253;-77
2024/01/09 07:34:38;;;;;;;9.10;5.97;;;;;;;;;;4322722;32;328284;-79
2024/01/09 07:37:05;;;;;;;9.33;6.40;;;;;;;;;;4350066;32;315448;-80
2024/01/09 07:39:32;;;;;;;10.37;7.73;;;;;;;;;;4357562;32;315315;-80
2024/01/09 07:42:05;;;;;;;9.20;7.40;;;;;;;;;;4319739;32;316310;-81
2024/01/09 07:44:35;;;;;;;11.57;7.60;;;;;;;;;;4317798;32;341462;-81
2024/01/09 07:47:02;;;;;;;8.17;5.77;;;;;;;;;;4306338;32;315993;-79
2024/01/09 07:49:29;;;;;;;9.57;6.93;;;;;;;;;;4315885;32;315885;-80
2024/01/09 07:51:56;;;;;;;14.03;9.83;;;;;;;;;;4353983;32;315294;-81
2024/01/09 07:54:25;;;;;;;19.47;11.07;;;;;;;;;;4300830;32;417935;-79
2024/01/09 07:56:54;;;;;;;19.77;12.67;;;;;;;;;;4370625;32;318187;-79
2024/01/09 07:59:25;;;;;;;16.00;9.73;;;;;;;;;;4307477;32;420072;-80
2024/01/09 08:02:00;;;;;;;19.47;11.50;;;;;;;;;;4316230;32;316783;-80
2024/01/09 08:04:28;;;;;;;11.77;8.33;;;;;;;;;;4342041;32;417206;-80
2024/01/09 08:07:01;;;;;;;12.07;8.17;;;;;;;;;;4308883;32;317302;-78
2024/01/09 08:09:29;;;;;;;9.63;5.80;;;;;;;;;;4309996;32;416754;-82
2024/01/09 08:11:58;;;;;;;11.17;7.40;;;;;;;;;;4323200;33;316092;-81
2024/01/09 08:14:26;;;;;;;14.50;9.43;;;;;;;;;;4330010;33;316795;-81
2024/01/09 08:16:53;;;;;;;14.30;8.73;;;;;;;;;;4324283;32;317402;-80
2024/01/09 08:19:21;;;;;;;14.43;9.87;;;;;;;;;;4308918;32;316639;-80
2024/01/09 08:21:48;;;;;;;12.23;7.87;;;;;;;;;;4358459;32;315634;-79
2024/01/09 08:24:18;;;;;;;13.10;8.02;;;;;;;;;;4370863;32;317339;-80
2024/01/09 08:29:28;;;;;;;27.27;15.50;;;;;;;;;;4376741;32;389102;-79
2024/01/09 08:32:01;;;;;;;13.93;7.90;;;;;;;;;;4358277;32;318385;-81
2024/01/09 08:34:31;;;;;;;7.30;6.37;;;;;;;;;;4330539;32;415792;-82
2024/01/09 08:36:59;;;;;;;13.57;8.27;;;;;;;;;;4338930;32;316348;-80
2024/01/09 08:39:30;;;;;;;20.67;13.53;;;;;;;;;;4350505;32;315206;-81
2024/01/09 08:41:57;;;;;;;21.53;12.93;;;;;;;;;;4341309;32;318128;-81
2024/01/09 08:44:27;;;;;;;28.80;18.53;;;;;;;;;;4345549;32;317452;-81
2024/01/09 08:46:53;;;;;;;16.50;10.63;;;;;;;;;;4351512;32;316451;-81
2024/01/09 08:49:21;;;;;;;14.47;7.67;;;;;;;;;;4335754;32;418584;-80
2024/01/09 08:51:51;;;;;;;18.53;7.27;;;;;;;;;;4349050;32;352713;-79
2024/01/09 08:54:18;;;;;;;10.37;7.37;;;;;;;;;;4331509;32;317123;-81
2024/01/09 08:56:45;;;;;;;53.53;28.40;;;;;;;;;;4351827;32;316543;-80
2024/01/09 08:59:12;;;;;;;36.20;20.80;;;;;;;;;;4326004;32;318155;-80
2024/01/09 09:01:40;;;;;;;28.10;15.90;;;;;;;;;;4335902;33;317818;-81
2024/01/09 09:04:08;;;;;;;11.53;8.80;;;;;;;;;;4316759;32;318363;-82
2024/01/09 09:06:37;;;;;;;18.10;12.33;;;;;;;;;;4321500;32;315917;-80
2024/01/09 09:09:11;;;;;;;40.73;19.27;;;;;;;;;;4312793;32;339865;-79
2024/01/09 09:11:39;;;;;;;29.93;16.97;;;;;;;;;;4320300;32;339962;-80
2024/01/09 09:14:08;;;;;;;45.27;22.40;;;;;;;;;;4317434;32;317308;-79
2024/01/09 09:16:37;;;;;;;17.30;12.07;;;;;;;;;;4333232;32;344754;-79
2024/01/09 09:19:05;;;;;;;43.97;21.13;;;;;;;;;;4324615;32;316982;-80
2024/01/09 09:21:32;;;;;;;23.17;12.53;;;;;;;;;;4324175;32;318296;-81
2024/01/09 09:24:07;;;;;;;12.13;8.77;;;;;;;;;;4310618;32;318327;-80
2024/01/09 09:26:37;;;;;;;11.87;9.23;;;;;;;;;;4325834;32;315708;-79
2024/01/09 09:29:05;;;;;;;17.87;12.93;;;;;;;;;;4323861;32;316679;-80
2024/01/09 09:34:16;;;;;;;9.73;6.20;;;;;;;;;;4312963;32;315616;-79
2024/01/09 09:36:43;;;;;;;23.37;14.27;;;;;;;;;;4318866;32;316520;-80
2024/01/09 09:41:44;;;;;;;27.63;14.53;;;;;;;;;;4347672;32;317766;-80
2024/01/09 09:44:15;;;;;;;24.67;13.90;;;;;;;;;;4331897;32;344003;-80
2024/01/09 09:46:43;;;;;;;33.83;18.63;;;;;;;;;;4348394;32;317770;-79
2024/01/09 09:49:12;;;;;;;23.37;15.60;;;;;;;;;;4339863;32;317326;-79
2024/01/09 09:51:41;;;;;;;19.63;12.97;;;;;;;;;;4341523;32;316703;-80
2024/01/09 09:54:11;;;;;;;12.77;9.23;;;;;;;;;;4335663;32;318155;-80
2024/01/09 09:56:41;;;;;;;17.20;12.73;;;;;;;;;;4349656;32;317343;-81
2024/01/09 09:59:13;;;;;;;10.73;8.07;;;;;;;;;;4339288;32;317797;-79
2024/01/09 10:01:41;;;;;;;7.40;6.10;;;;;;;;;;4347231;32;316861;-81
2024/01/09 10:04:26;;;;;;;8.70;6.97;;;;;;;;;;4331712;32;346171;-79
2024/01/09 10:06:55;;;;;;;8.07;6.13;;;;;;;;;;4340876;32;314668;-80
2024/01/09 10:09:23;;;;;;;11.90;6.57;;;;;;;;;;4321852;32;415097;-80
2024/01/09 10:11:53;;;;;;;9.30;6.90;;;;;;;;;;4333849;32;317285;-79
2024/01/09 10:14:21;;;;;;;7.20;5.83;;;;;;;;;;4319064;32;316363;-80
2024/01/09 10:16:53;;;;;;;11.57;6.90;;;;;;;;;;4334517;33;314342;-80
2024/01/09 10:19:23;;;;;;;12.07;7.67;;;;;;;;;;4323605;32;353271;-80
2024/01/09 10:21:53;;;;;;;11.77;6.73;;;;;;;;;;4333602;32;316378;-79
2024/01/09 10:24:22;;;;;;;10.07;6.97;;;;;;;;;;4319414;32;316814;-79
2024/01/09 10:26:54;;;;;;;11.67;7.53;;;;;;;;;;4335374;32;317430;-79
2024/01/09 10:29:21;;;;;;;11.10;7.63;;;;;;;;;;4322003;32;416390;-79
2024/01/09 10:31:48;;;;;;;17.90;10.33;;;;;;;;;;4334384;33;316683;-78
2024/01/09 10:34:14;;;;;;;28.13;14.73;;;;;;;;;;4315474;32;317935;-81
2024/01/09 10:36:43;;;;;;;10.30;8.40;;;;;;;;;;4337268;32;317751;-78
2024/01/09 10:39:12;;;;;;;14.00;8.73;;;;;;;;;;4335597;32;316514;-77
2024/01/09 10:41:41;;;;;;;7.77;5.97;;;;;;;;;;4369973;32;316646;-79
2024/01/09 10:44:15;;;;;;;13.03;9.33;;;;;;;;;;4331502;32;316275;-78
2024/01/09 10:46:44;;;;;;;14.10;8.60;;;;;;;;;;4343158;32;315304;-80
2024/01/09 10:49:13;;;;;;;11.00;8.13;;;;;;;;;;4336698;32;316078;-80
2024/01/09 10:51:43;;;;;;;12.03;7.13;;;;;;;;;;4374691;32;317236;-82
2024/01/09 10:54:13;;;;;;;12.07;8.67;;;;;;;;;;4311299;32;350132;-79
2024/01/09 10:56:42;;;;;;;16.63;10.73;;;;;;;;;;4361900;32;315559;-79
2024/01/09 10:59:12;;;;;;;11.73;7.03;;;;;;;;;;4330724;32;317589;-80
2024/01/09 11:01:41;;;;;;;16.53;9.93;;;;;;;;;;4350445;32;317235;-81
2024/01/09 11:04:09;;;;;;;10.10;6.57;;;;;;;;;;4333992;32;316383;-80
2024/01/09 11:06:37;;;;;;;8.40;6.27;;;;;;;;;;4348577;32;318230;-80
2024/01/09 11:09:05;;;;;;;10.20;7.27;;;;;;;;;;4339858;32;316309;-80
2024/01/09 11:11:36;;;;;;;11.33;6.90;;;;;;;;;;4349923;32;316740;-81
2024/01/09 11:14:08;;;;;;;14.90;9.33;;;;;;;;;;4335105;32;316688;-79
2024/01/09 11:16:40;;;;;;;10.70;6.70;;;;;;;;;;4338350;32;316056;-81
2024/01/09 11:19:12;;;;;;;8.80;6.33;;;;;;;;;;4337140;32;315387;-80
2024/01/09 11:21:39;;;;;;;9.03;6.80;;;;;;;;;;4342969;32;313228;-80
2024/01/09 11:24:07;;;;;;;7.70;5.63;;;;;;;;;;4337235;32;314653;-80
2024/01/09 11:26:37;;;;;;;8.63;5.80;;;;;;;;;;4343076;32;314167;-80
2024/01/09 11:29:05;;;;;;;15.80;9.40;;;;;;;;;;4337337;32;314797;-79
2024/01/09 11:31:35;;;;;;;14.20;8.70;;;;;;;;;;4395888;32;317099;-80
2024/01/09 11:34:04;;;;;;;22.80;8.37;;;;;;;;;;4323445;32;317334;-80
2024/01/09 11:36:33;;;;;;;10.47;7.63;;;;;;;;;;4391739;32;316858;-80
2024/01/09 11:39:00;;;;;;;10.03;7.40;;;;;;;;;;4388173;32;316784;-80
2024/01/09 11:41:32;;;;;;;13.60;8.00;;;;;;;;;;4390917;32;338646;-80
2024/01/09 11:44:03;;;;;;;20.40;11.40;;;;;;;;;;4381957;32;389401;-80
2024/01/09 11:46:32;;;;;;;13.57;7.60;;;;;;;;;;4392382;32;316916;-80
2024/01/09 11:49:00;;;;;;;17.53;9.07;;;;;;;;;;4382698;32;324157;-80
2024/01/09 11:51:33;;;;;;;13.70;7.57;;;;;;;;;;4346101;32;317661;-80
2024/01/09 11:54:01;;;;;;;9.37;6.13;;;;;;;;;;4329498;32;318450;-80
2024/01/09 11:56:29;;;;;;;13.07;7.80;;;;;;;;;;4329577;32;316227;-81
2024/01/09 11:58:57;;;;;;;8.57;7.13;;;;;;;;;;4320648;32;345011;-81
2024/01/09 12:01:26;;;;;;;20.03;9.53;;;;;;;;;;4334411;32;314395;-81
2024/01/09 12:03:55;;;;;;;11.40;7.43;;;;;;;;;;4327709;32;317216;-80
2024/01/09 12:06:23;;;;;;;8.83;5.60;;;;;;;;;;4320263;32;416508;-81
2024/01/09 12:08:54;;;;;;;14.53;7.17;;;;;;;;;;4348294;32;314332;-81
2024/01/09 12:11:22;;;;;;;11.23;7.73;;;;;;;;;;4341047;32;416617;-81
2024/01/09 12:13:58;;;;;;;9.97;7.17;;;;;;;;;;4341787;32;317236;-81
2024/01/09 12:16:25;;;;;;;12.97;8.10;;;;;;;;;;4326476;32;416849;-81
2024/01/09 12:18:56;;;;;;;9.97;6.90;;;;;;;;;;4349624;32;326570;-80
2024/01/09 12:21:27;;;;;;;13.73;8.80;;;;;;;;;;4336534;32;416865;-80
2024/01/09 12:23:56;;;;;;;11.13;7.47;;;;;;;;;;4348273;32;317015;-80
2024/01/09 12:26:26;;;;;;;16.73;12.43;;;;;;;;;;4332789;32;416386;-82
2024/01/09 12:28:55;;;;;;;18.87;10.33;;;;;;;;;;4351457;32;317479;-80
2024/01/09 12:31:25;;;;;;;27.50;11.87;;;;;;;;;;4329786;32;417416;-80
2024/01/09 12:33:53;;;;;;;13.27;9.50;;;;;;;;;;4337479;32;316277;-81
2024/01/09 12:36:23;;;;;;;18.37;11.50;;;;;;;;;;4322905;32;317349;-81
2024/01/09 12:38:52;;;;;;;18.00;11.07;;;;;;;;;;4334100;32;356421;-81
2024/01/09 12:41:25;;;;;;;12.00;9.10;;;;;;;;;;4327670;32;318295;-80
2024/01/09 12:43:53;;;;;;;15.47;10.97;;;;;;;;;;4352010;32;317525;-79
2024/01/09 12:46:21;;;;;;;19.60;11.30;;;;;;;;;;4381252;32;318708;-81
2024/01/09 12:48:52;;;;;;;13.00;8.53;;;;;;;;;;4393570;32;316632;-79
2024/01/09 12:51:22;;;;;;;14.67;10.37;;;;;;;;;;4372633;32;317041;-79
2024/01/09 12:53:49;;;;;;;24.80;16.20;;;;;;;;;;4379503;32;317050;-79
2024/01/09 12:56:16;;;;;;;23.67;16.00;;;;;;;;;;4364977;32;318173;-80
2024/01/09 12:58:45;;;;;;;19.60;13.97;;;;;;;;;;4382239;32;317527;-80
2024/01/09 13:01:12;;;;;;;23.13;13.10;;;;;;;;;;4382322;32;318306;-79
2024/01/09 13:03:39;;;;;;;18.20;12.37;;;;;;;;;;4394636;32;318909;-78
2024/01/09 13:06:10;;;;;;;17.77;14.47;;;;;;;;;;4375813;32;359993;-79
2024/01/09 13:08:38;;;;;;;18.07;12.80;;;;;;;;;;4395287;32;317633;-79
2024/01/09 13:11:06;;;;;;;21.07;13.37;;;;;;;;;;4384704;32;318222;-80
2024/01/09 13:13:35;;;;;;;15.30;9.73;;;;;;;;;;4394786;32;316543;-78
2024/01/09 13:16:05;;;;;;;14.97;10.73;;;;;;;;;;4384583;32;316639;-78
2024/01/09 13:18:32;;;;;;;15.67;11.13;;;;;;;;;;4393924;32;317823;-78
2024/01/09 13:20:59;;;;;;;15.33;10.77;;;;;;;;;;4381995;32;317836;-79
2024/01/09 13:23:28;;;;;;;12.10;8.57;;;;;;;;;;4401927;32;316994;-78
2024/01/09 13:25:58;;;;;;;15.47;11.37;;;;;;;;;;4401192;32;316627;-78
2024/01/09 13:28:26;;;;;;;12.37;8.93;;;;;;;;;;4382071;32;419163;-78
2024/01/09 13:30:56;;;;;;;21.73;12.13;;;;;;;;;;4403344;32;317181;-77
2024/01/09 13:33:26;;;;;;;19.03;10.87;;;;;;;;;;4396125;32;417423;-77
2024/01/09 13:35:55;;;;;;;52.80;26.67;;;;;;;;;;4406054;32;316366;-78
2024/01/09 13:38:22;;;;;;;88.73;50.53;;;;;;;;;;4383832;32;417152;-79
2024/01/09 13:40:49;;;;;;;49.57;25.30;;;;;;;;;;4396352;32;317546;-79
2024/01/09 13:43:17;;;;;;;23.83;13.23;;;;;;;;;;4384580;32;318252;-79
2024/01/09 13:45:45;;;;;;;39.03;19.10;;;;;;;;;;4394088;32;318013;-79
2024/01/09 13:48:13;;;;;;;27.07;16.13;;;;;;;;;;4374382;32;317260;-78
2024/01/09 13:50:46;;;;;;;13.33;8.90;;;;;;;;;;4390213;32;316615;-78
2024/01/09 13:53:15;;;;;;;18.00;9.67;;;;;;;;;;4381323;32;316648;-79
2024/01/09 13:55:46;;;;;;;13.67;9.77;;;;;;;;;;4393289;32;316375;-78
2024/01/09 13:58:15;;;;;;;16.33;9.20;;;;;;;;;;4379890;32;315543;-79
2024/01/09 14:00:44;;;;;;;30.70;15.57;;;;;;;;;;4397448;32;316327;-79
2024/01/09 14:03:11;;;;;;;18.07;9.67;;;;;;;;;;4385138;32;318602;-78
2024/01/09 14:05:39;;;;;;;14.57;8.57;;;;;;;;;;4385571;32;316900;-79
2024/01/09 14:08:10;;;;;;;12.77;8.97;;;;;;;;;;4372099;32;317101;-79
2024/01/09 14:10:37;;;;;;;12.37;7.40;;;;;;;;;;4390797;32;316390;-80
2024/01/09 14:13:07;;;;;;;12.93;9.67;;;;;;;;;;4376640;32;317372;-78
2024/01/09 14:15:34;;;;;;;16.60;9.87;;;;;;;;;;4366223;32;316552;-78
2024/01/09 14:18:04;;;;;;;14.30;8.43;;;;;;;;;;4350550;32;337669;-78
2024/01/09 14:20:32;;;;;;;14.30;7.73;;;;;;;;;;4378336;32;317138;-78
2024/01/09 14:22:59;;;;;;;20.67;10.53;;;;;;;;;;4372723;32;316776;-79
2024/01/09 14:25:29;;;;;;;33.77;16.43;;;;;;;;;;4393255;32;317235;-78
2024/01/09 14:27:57;;;;;;;47.73;21.43;;;;;;;;;;4381448;32;317536;-79
2024/01/09 14:30:24;;;;;;;27.40;15.20;;;;;;;;;;4385758;32;318248;-79
2024/01/09 14:32:51;;;;;;;40.73;17.50;;;;;;;;;;4381159;32;318122;-78
2024/01/09 14:35:19;;;;;;;38.77;18.97;;;;;;;;;;4372958;32;318229;-80
2024/01/09 14:37:48;;;;;;;20.93;12.40;;;;;;;;;;4391663;32;318115;-79
2024/01/09 14:40:16;;;;;;;15.13;8.40;;;;;;;;;;4370889;32;317509;-78
2024/01/09 14:42:44;;;;;;;16.93;7.87;;;;;;;;;;4359598;32;317274;-77
2024/01/09 14:45:14;;;;;;;10.40;8.30;;;;;;;;;;4365968;32;317187;-77
2024/01/09 14:47:40;;;;;;;17.17;10.03;;;;;;;;;;4361089;32;317165;-80
2024/01/09 14:50:09;;;;;;;9.50;7.43;;;;;;;;;;4363199;32;343157;-78
2024/01/09 14:52:36;;;;;;;13.87;9.73;;;;;;;;;;4380418;32;316103;-80
2024/01/09 14:55:03;;;;;;;11.07;8.30;;;;;;;;;;4369052;32;317251;-79
2024/01/09 14:57:31;;;;;;;10.57;6.03;;;;;;;;;;4384055;32;317337;-80